Terminal Aerodrome Forecast
Issued by NWS Cleveland, OH

Home | Current Version | Previous Version | Text Only | Print | Product List | Glossary On
Versions: 1 2 3 4 5 6 7 8 9 10 11 12 13 14 15 16
000
FTUS41 KCLE 281700
TAFTOL
TAF
KTOL 281739Z 2818/2918 19008KT P6SM SCT025 BKN050
      TEMPO 2818/2820 BKN025
     FM290400 18006KT P6SM SCT035 OVC050 PROB30 2908/2911 6SM -FZDZ
      SCT025 OVC035
     FM291500 20010G18KT P6SM VCSH BKN035 OVC100=

USA.gov is the U.S. government's official web portal to all federal, state and local government web resources and services.